Time;durP1;ratioP1;P1;durP2;ratioP2;P2;SDS_P1;SDS_P2;PMS_P1;PMS_P2;Temp;Humidity;BMP_temperature;BMP_pressure;BME280_temperature;BME280_humidity;BME280_pressure;Samples;Min_cycle;Max_cycle;Signal;HPM_P1;HPM_P2
2023/01/01 00:00:23;;;;;;;37.63;24.10;;;4.70;99.90;;;;;;5135749;27;20165;-91
2023/01/01 00:02:49;;;;;;;41.90;24.57;;;4.70;99.90;;;;;;5140816;27;20174;-90
2023/01/01 00:05:14;;;;;;;39.27;24.90;;;4.70;99.90;;;;;;5119783;28;20182;-92
2023/01/01 00:07:42;;;;;;;42.10;25.53;;;4.70;99.90;;;;;;5104605;28;20179;-92
2023/01/01 00:10:27;;;;;;;41.97;25.07;;;4.60;99.90;;;;;;5101984;28;20226;-90
2023/01/01 00:12:56;;;;;;;41.97;25.63;;;4.60;99.90;;;;;;5119234;28;20239;-92
2023/01/01 00:15:23;;;;;;;39.33;24.60;;;4.70;99.90;;;;;;5119055;28;20163;-91
2023/01/01 00:17:49;;;;;;;41.30;25.00;;;4.70;99.90;;;;;;5100131;28;20264;-91
2023/01/01 00:20:15;;;;;;;47.13;27.40;;;4.60;99.90;;;;;;5119379;28;20185;-93
2023/01/01 00:22:41;;;;;;;42.13;26.73;;;4.70;99.90;;;;;;5100207;28;20184;-90
2023/01/01 00:25:07;;;;;;;43.13;26.43;;;4.60;99.90;;;;;;5101319;28;20172;-87
2023/01/01 00:27:33;;;;;;;45.47;29.57;;;4.60;99.90;;;;;;5099594;28;20175;-92
2023/01/01 00:29:59;;;;;;;47.50;29.47;;;4.50;99.90;;;;;;5117677;28;20177;-89
2023/01/01 00:32:25;;;;;;;52.70;30.10;;;4.50;99.90;;;;;;5099349;28;20206;-88
2023/01/01 00:34:51;;;;;;;44.83;28.17;;;4.50;99.90;;;;;;5101575;28;20192;-89
2023/01/01 00:37:19;;;;;;;45.40;28.33;;;4.60;99.90;;;;;;5134551;28;20172;-88
2023/01/01 00:39:45;;;;;;;48.03;28.53;;;4.50;99.90;;;;;;5128700;28;20202;-87
2023/01/01 00:42:12;;;;;;;45.33;28.20;;;4.50;99.90;;;;;;5118565;28;20173;-87
2023/01/01 00:44:38;;;;;;;43.47;28.60;;;4.50;99.90;;;;;;5117492;28;20196;-89
2023/01/01 00:47:04;;;;;;;51.20;29.83;;;4.50;99.90;;;;;;5098351;28;20178;-88
2023/01/01 00:49:30;;;;;;;48.93;28.70;;;4.50;99.90;;;;;;5098410;28;20174;-88
2023/01/01 00:51:56;;;;;;;47.57;29.80;;;4.40;99.90;;;;;;5097748;28;20224;-87
2023/01/01 00:54:22;;;;;;;54.03;29.87;;;4.40;99.90;;;;;;5116914;28;20225;-89
2023/01/01 00:56:47;;;;;;;53.77;31.37;;;4.40;99.90;;;;;;5117822;28;20174;-93
2023/01/01 00:59:13;;;;;;;52.80;30.40;;;4.40;99.90;;;;;;5117407;28;20174;-89
2023/01/01 01:01:39;;;;;;;46.80;28.80;;;4.40;99.90;;;;;;5117470;28;20174;-90
2023/01/01 01:04:07;;;;;;;54.60;29.77;;;4.40;99.90;;;;;;5123603;28;20196;-86
2023/01/01 01:06:33;;;;;;;55.00;30.83;;;4.40;99.90;;;;;;5110234;28;20181;-88
2023/01/01 01:08:59;;;;;;;51.40;31.07;;;4.40;99.90;;;;;;5101479;28;20180;-90
2023/01/01 01:11:25;;;;;;;51.03;31.70;;;4.40;99.90;;;;;;5094092;28;20248;-88
2023/01/01 01:13:53;;;;;;;54.57;33.03;;;4.30;99.90;;;;;;5096914;28;20252;-88
2023/01/01 01:16:25;;;;;;;52.63;32.17;;;4.30;99.90;;;;;;5103528;28;20276;-87
2023/01/01 01:18:53;;;;;;;53.33;33.03;;;4.40;99.90;;;;;;5098139;28;20167;-89
2023/01/01 01:21:21;;;;;;;59.93;32.70;;;4.40;99.90;;;;;;5095437;28;20255;-89
2023/01/01 01:23:47;;;;;;;51.13;31.40;;;4.30;99.90;;;;;;5093866;28;20703;-87
2023/01/01 01:26:16;;;;;;;47.07;31.60;;;4.30;99.90;;;;;;5093921;28;20178;-88
2023/01/01 01:28:43;;;;;;;55.53;32.90;;;4.30;99.90;;;;;;5095310;28;20252;-88
2023/01/01 01:31:10;;;;;;;58.13;32.43;;;4.20;99.90;;;;;;5094403;28;20569;-87
2023/01/01 01:33:36;;;;;;;56.73;32.90;;;4.20;99.90;;;;;;5094433;28;20179;-90
2023/01/01 01:36:03;;;;;;;58.97;34.03;;;4.30;99.90;;;;;;5096419;28;20170;-88
2023/01/01 01:38:29;;;;;;;56.73;35.43;;;4.20;99.90;;;;;;5104744;28;20177;-89
2023/01/01 01:40:55;;;;;;;64.93;38.93;;;4.20;99.90;;;;;;5116399;28;20162;-88
2023/01/01 01:43:32;;;;;;;65.87;38.13;;;4.10;99.90;;;;;;5110196;28;20248;-91
2023/01/01 01:46:20;;;;;;;62.97;37.40;;;4.20;99.90;;;;;;5112922;28;20219;-91
2023/01/01 01:48:49;;;;;;;79.20;43.27;;;4.20;99.90;;;;;;5116718;28;20194;-92
2023/01/01 01:51:21;;;;;;;77.90;43.23;;;4.10;99.90;;;;;;5112929;28;20255;-92
2023/01/01 01:53:51;;;;;;;73.17;42.77;;;4.10;99.90;;;;;;5097134;28;20167;-91
2023/01/01 01:56:30;;;;;;;78.60;46.03;;;4.10;99.90;;;;;;5096603;28;20162;-92
2023/01/01 01:58:56;;;;;;;80.10;45.37;;;4.10;99.90;;;;;;5096920;28;20162;-93
2023/01/01 02:01:23;;;;;;;75.83;44.53;;;4.10;99.90;;;;;;5094322;28;20600;-86
2023/01/01 02:04:01;;;;;;;75.37;43.87;;;4.10;99.90;;;;;;5095190;28;20179;-89
2023/01/01 02:06:30;;;;;;;73.80;41.57;;;4.00;99.90;;;;;;5094043;28;20205;-87
2023/01/01 02:08:57;;;;;;;76.37;43.13;;;4.00;99.90;;;;;;5094006;28;20660;-90
2023/01/01 02:11:24;;;;;;;70.47;41.93;;;4.00;99.90;;;;;;5113172;28;20232;-89
2023/01/01 02:13:51;;;;;;;72.70;41.07;;;4.00;99.90;;;;;;5105085;28;20173;-88
2023/01/01 02:16:36;;;;;;;72.80;42.00;;;4.00;99.90;;;;;;5119468;28;20178;-88
2023/01/01 02:19:15;;;;;;;70.63;40.00;;;4.00;99.90;;;;;;5097129;28;20170;-90
2023/01/01 02:21:59;;;;;;;66.27;38.63;;;4.00;99.90;;;;;;5097032;28;20578;-91
2023/01/01 02:24:24;;;;;;;66.93;40.40;;;3.90;99.90;;;;;;5096634;28;20296;-89
2023/01/01 02:27:25;;;;;;;68.40;39.03;;;3.90;99.90;;;;;;5096513;28;20216;-88
2023/01/01 02:29:56;;;;;;;70.27;37.73;;;3.90;99.90;;;;;;5009677;28;20193;-89
2023/01/01 02:32:43;;;;;;;62.03;36.37;;;3.90;99.90;;;;;;5096346;28;20217;-88
2023/01/01 02:35:37;;;;;;;57.73;33.93;;;3.90;99.90;;;;;;5099853;28;20173;-88
2023/01/01 02:38:12;;;;;;;52.70;31.73;;;3.90;99.90;;;;;;5104082;28;20250;-89
2023/01/01 02:41:18;;;;;;;64.07;36.17;;;3.90;99.90;;;;;;5102627;28;20211;-88
2023/01/01 02:43:45;;;;;;;51.53;28.43;;;3.90;99.90;;;;;;5096301;28;20208;-87
2023/01/01 02:46:11;;;;;;;58.30;32.37;;;3.90;99.90;;;;;;5098615;28;20664;-86
2023/01/01 02:48:47;;;;;;;53.90;30.60;;;3.90;99.90;;;;;;5096098;28;20188;-88
2023/01/01 02:51:13;;;;;;;53.80;30.63;;;3.80;99.90;;;;;;5113912;28;20192;-90
2023/01/01 02:53:56;;;;;;;50.37;30.27;;;3.80;99.90;;;;;;5114309;28;20184;-89
2023/01/01 02:56:40;;;;;;;42.73;25.87;;;3.80;99.90;;;;;;5114267;28;20154;-90
2023/01/01 03:02:21;;;;;;;43.70;25.50;;;3.70;99.90;;;;;;5114451;28;20177;-88
2023/01/01 03:05:24;;;;;;;44.90;26.77;;;3.80;99.90;;;;;;5064521;28;20239;-89
2023/01/01 03:08:07;;;;;;;43.10;25.27;;;3.80;99.90;;;;;;5113594;28;20180;-88
2023/01/01 03:11:04;;;;;;;33.33;19.23;;;3.80;99.90;;;;;;5095761;28;20225;-91
2023/01/01 03:13:59;;;;;;;30.53;17.80;;;3.80;99.90;;;;;;5115488;28;20192;-92
2023/01/01 03:16:38;;;;;;;35.57;21.23;;;3.70;99.90;;;;;;5123066;28;20182;-90
2023/01/01 03:19:16;;;;;;;36.27;20.80;;;3.70;99.90;;;;;;5120772;28;20159;-87
2023/01/01 03:22:02;;;;;;;33.07;20.13;;;3.80;99.90;;;;;;5111607;28;20174;-89
2023/01/01 03:24:43;;;;;;;30.10;17.50;;;3.90;99.90;;;;;;5116063;28;20162;-91
2023/01/01 03:27:22;;;;;;;29.07;18.00;;;3.80;99.90;;;;;;5096512;28;20202;-91
2023/01/01 03:29:51;;;;;;;30.17;17.87;;;3.80;99.90;;;;;;5114983;28;20633;-91
2023/01/01 03:32:22;;;;;;;25.47;17.20;;;3.80;99.90;;;;;;5114739;28;20203;-94
2023/01/01 03:34:55;;;;;;;27.40;18.50;;;3.80;99.90;;;;;;5082128;28;20182;-92
2023/01/01 03:37:28;;;;;;;30.60;18.90;;;3.80;99.90;;;;;;5101189;28;20629;-92
2023/01/01 03:39:57;;;;;;;29.30;18.93;;;3.80;99.90;;;;;;5128191;28;20238;-90
2023/01/01 03:42:35;;;;;;;28.90;17.73;;;3.80;99.90;;;;;;5105033;28;20173;-92
2023/01/01 03:45:07;;;;;;;26.67;16.83;;;3.80;99.90;;;;;;5100854;28;20183;-90
2023/01/01 03:47:34;;;;;;;21.73;14.43;;;3.80;99.90;;;;;;5102566;28;20174;-91
2023/01/01 03:50:01;;;;;;;24.67;15.17;;;3.70;99.90;;;;;;5119613;28;20170;-86
2023/01/01 03:52:42;;;;;;;20.97;13.23;;;3.70;99.90;;;;;;5114677;28;20690;-91
2023/01/01 03:55:22;;;;;;;19.13;13.10;;;3.70;99.90;;;;;;5099546;28;20177;-86
2023/01/01 03:58:15;;;;;;;19.80;13.13;;;3.70;99.90;;;;;;5099314;28;20177;-90
2023/01/01 04:01:00;;;;;;;20.60;13.07;;;3.60;99.90;;;;;;5133082;28;20186;-87
2023/01/01 04:03:30;;;;;;;25.17;13.53;;;3.80;99.90;;;;;;5108741;28;20177;-88
2023/01/01 04:05:55;;;;;;;20.20;13.63;;;3.80;99.90;;;;;;5120324;28;20252;-88
2023/01/01 04:08:21;;;;;;;24.30;14.60;;;3.80;99.90;;;;;;5126401;28;20201;-90
2023/01/01 04:10:53;;;;;;;24.53;15.27;;;3.90;99.90;;;;;;5100708;28;20217;-86
2023/01/01 04:13:19;;;;;;;30.07;18.43;;;3.90;99.90;;;;;;5116940;28;20260;-92
2023/01/01 04:15:45;;;;;;;37.07;22.17;;;3.90;99.90;;;;;;5120659;28;20591;-91
2023/01/01 04:18:11;;;;;;;36.43;20.60;;;3.90;99.90;;;;;;5099025;28;20178;-91
2023/01/01 04:20:37;;;;;;;34.77;21.27;;;3.80;99.90;;;;;;5117259;28;20535;-90
2023/01/01 04:23:03;;;;;;;35.17;22.63;;;3.80;99.90;;;;;;5098649;28;20181;-88
2023/01/01 04:25:29;;;;;;;33.47;20.23;;;3.70;99.90;;;;;;5098900;28;20299;-91
2023/01/01 04:27:57;;;;;;;36.20;20.37;;;3.70;99.90;;;;;;5117151;28;20253;-90
2023/01/01 04:30:23;;;;;;;25.93;15.73;;;3.70;99.90;;;;;;5099174;28;20177;-92
2023/01/01 04:32:49;;;;;;;28.53;16.70;;;3.70;99.90;;;;;;5099420;28;20209;-93
2023/01/01 04:35:15;;;;;;;35.90;20.57;;;3.80;99.90;;;;;;5099269;28;20186;-92
2023/01/01 04:37:43;;;;;;;33.67;20.40;;;3.80;99.90;;;;;;5117307;28;20174;-92
2023/01/01 04:40:10;;;;;;;41.53;23.20;;;3.80;99.90;;;;;;5117639;28;20181;-90
2023/01/01 04:42:36;;;;;;;38.90;23.47;;;3.80;99.90;;;;;;5117089;28;20201;-92
2023/01/01 04:45:03;;;;;;;38.73;23.97;;;3.80;99.90;;;;;;5097716;28;20173;-86
2023/01/01 04:47:29;;;;;;;35.50;21.07;;;3.80;99.90;;;;;;5098317;28;20287;-86
2023/01/01 04:49:55;;;;;;;35.27;22.70;;;3.70;99.90;;;;;;5116324;28;20205;-89
2023/01/01 04:52:21;;;;;;;41.27;22.60;;;3.70;99.90;;;;;;5124742;28;20229;-87
2023/01/01 04:54:47;;;;;;;36.97;22.47;;;3.70;99.90;;;;;;5116126;28;20256;-89
2023/01/01 04:57:13;;;;;;;46.33;27.40;;;3.70;99.90;;;;;;5121775;28;20178;-87
2023/01/01 04:59:40;;;;;;;44.70;27.30;;;3.70;99.90;;;;;;5132962;28;20181;-90
2023/01/01 05:02:06;;;;;;;52.17;28.83;;;3.80;99.90;;;;;;5100378;28;20174;-91
2023/01/01 05:04:32;;;;;;;54.87;34.10;;;3.80;99.90;;;;;;5098176;28;20188;-90
2023/01/01 05:06:58;;;;;;;65.10;36.83;;;3.70;99.90;;;;;;5098294;28;20204;-91
2023/01/01 05:09:24;;;;;;;62.77;39.80;;;3.70;99.90;;;;;;5098208;28;20629;-90
2023/01/01 05:11:50;;;;;;;64.97;37.93;;;3.70;99.90;;;;;;5098255;28;20276;-92
2023/01/01 05:14:15;;;;;;;65.80;39.27;;;3.70;99.90;;;;;;5116460;28;20180;-92
2023/01/01 05:16:41;;;;;;;67.33;40.23;;;3.60;99.90;;;;;;5116471;28;20180;-90
2023/01/01 05:19:08;;;;;;;71.07;41.77;;;3.60;99.90;;;;;;5116293;28;20196;-91
2023/01/01 05:21:36;;;;;;;78.83;43.20;;;3.60;99.90;;;;;;5098725;28;20209;-92
2023/01/01 05:24:05;;;;;;;72.77;42.30;;;3.60;99.90;;;;;;5118167;28;20180;-90
2023/01/01 05:26:34;;;;;;;69.57;41.37;;;3.60;99.90;;;;;;5098899;28;20312;-88
2023/01/01 05:29:00;;;;;;;71.40;43.07;;;3.60;99.90;;;;;;5105693;28;20174;-88
2023/01/01 05:31:31;;;;;;;72.63;43.70;;;3.60;99.90;;;;;;5105550;28;20302;-89
2023/01/01 05:33:58;;;;;;;77.43;43.97;;;3.60;99.90;;;;;;5098057;28;20170;-94
2023/01/01 05:36:26;;;;;;;81.40;44.77;;;3.60;99.90;;;;;;5098314;28;20219;-92
2023/01/01 05:38:53;;;;;;;82.23;46.63;;;3.60;99.90;;;;;;5100825;28;20170;-93
2023/01/01 05:41:20;;;;;;;79.33;46.47;;;3.50;99.90;;;;;;5105242;28;20184;-92
2023/01/01 05:43:46;;;;;;;86.47;48.03;;;3.50;99.90;;;;;;5124838;28;20225;-88
2023/01/01 05:46:17;;;;;;;85.57;46.93;;;3.50;99.90;;;;;;5124582;28;20180;-92
2023/01/01 05:48:44;;;;;;;76.60;45.10;;;3.50;99.90;;;;;;5100082;28;20172;-92
2023/01/01 05:51:12;;;;;;;74.27;42.70;;;3.50;99.90;;;;;;5098156;28;20209;-91
2023/01/01 05:53:39;;;;;;;75.23;42.40;;;3.50;99.90;;;;;;5097810;28;20177;-89
2023/01/01 05:56:05;;;;;;;68.37;40.47;;;3.60;99.90;;;;;;5097262;28;20181;-90
2023/01/01 05:58:33;;;;;;;72.37;41.57;;;3.50;99.90;;;;;;5096976;28;20174;-90
2023/01/01 06:01:26;;;;;;;70.47;39.60;;;3.50;99.90;;;;;;5097255;28;20178;-91
2023/01/01 06:03:53;;;;;;;68.37;38.97;;;3.50;99.90;;;;;;5122723;28;20162;-87
2023/01/01 06:06:31;;;;;;;69.00;40.93;;;3.50;99.90;;;;;;5120871;28;20162;-90
2023/01/01 06:08:59;;;;;;;67.17;38.80;;;3.50;99.90;;;;;;5097425;28;20299;-90
2023/01/01 06:11:26;;;;;;;62.73;37.73;;;3.50;99.90;;;;;;5096598;28;20321;-91
2023/01/01 06:13:53;;;;;;;65.07;38.33;;;3.50;99.90;;;;;;5129907;28;20203;-91
2023/01/01 06:16:19;;;;;;;72.83;40.20;;;3.50;99.90;;;;;;5135472;27;20185;-88
2023/01/01 06:18:45;;;;;;;64.87;37.37;;;3.40;99.90;;;;;;5124828;28;20545;-89
2023/01/01 06:21:16;;;;;;;66.07;37.90;;;3.50;99.90;;;;;;5116074;28;20170;-89
2023/01/01 06:23:42;;;;;;;67.17;38.03;;;3.50;99.90;;;;;;5115577;28;20170;-87
2023/01/01 06:26:12;;;;;;;64.63;36.33;;;3.50;99.90;;;;;;5098236;28;20569;-90
2023/01/01 06:28:38;;;;;;;62.97;36.20;;;3.40;99.90;;;;;;5115323;28;20262;-88
2023/01/01 06:31:06;;;;;;;58.07;35.60;;;3.40;99.90;;;;;;5097054;28;20220;-90
2023/01/01 06:33:32;;;;;;;58.13;33.63;;;3.40;99.90;;;;;;5111018;28;20204;-87
2023/01/01 06:36:00;;;;;;;58.40;34.13;;;3.50;99.90;;;;;;5106090;28;20201;-88
2023/01/01 06:38:26;;;;;;;57.30;33.37;;;3.50;99.90;;;;;;5126345;28;20222;-90
2023/01/01 06:40:56;;;;;;;53.97;32.13;;;3.50;99.90;;;;;;5118026;28;20169;-89
2023/01/01 06:43:22;;;;;;;55.60;33.23;;;3.50;99.90;;;;;;5096927;28;20174;-91
2023/01/01 06:45:57;;;;;;;54.70;32.47;;;3.50;99.90;;;;;;5096784;28;20181;-92
2023/01/01 06:48:23;;;;;;;60.87;33.93;;;3.50;99.90;;;;;;5096761;28;20265;-90
2023/01/01 06:50:48;;;;;;;56.10;32.77;;;3.60;99.90;;;;;;5096678;28;20353;-91
2023/01/01 06:53:14;;;;;;;56.13;32.23;;;3.60;99.90;;;;;;5115328;28;20517;-92
2023/01/01 06:55:47;;;;;;;53.93;31.43;;;3.50;99.90;;;;;;5097273;28;20174;-90
2023/01/01 06:58:13;;;;;;;50.97;30.10;;;3.50;99.90;;;;;;5115029;28;20154;-86
2023/01/01 07:00:39;;;;;;;51.43;30.07;;;3.50;99.90;;;;;;5114683;28;20625;-87
2023/01/01 07:03:05;;;;;;;48.63;29.23;;;3.50;99.90;;;;;;5114818;28;20196;-91
2023/01/01 07:05:31;;;;;;;51.40;29.97;;;3.60;99.90;;;;;;5108158;28;20181;-87
2023/01/01 07:07:57;;;;;;;52.80;29.27;;;3.70;99.90;;;;;;5122716;28;20183;-91
2023/01/01 07:10:22;;;;;;;52.93;30.10;;;3.70;99.90;;;;;;5100610;28;20312;-88
2023/01/01 07:12:48;;;;;;;52.07;28.97;;;3.70;99.90;;;;;;5118383;28;20737;-88
2023/01/01 07:15:14;;;;;;;48.37;28.23;;;3.70;99.90;;;;;;5116327;28;20237;-87
2023/01/01 07:17:40;;;;;;;42.90;27.83;;;3.80;99.90;;;;;;5115915;28;20172;-87
2023/01/01 07:20:07;;;;;;;47.83;26.57;;;3.80;99.90;;;;;;5118779;28;20207;-88
2023/01/01 07:22:36;;;;;;;47.83;27.73;;;3.80;99.90;;;;;;5118512;28;20220;-92
2023/01/01 07:25:02;;;;;;;44.60;27.67;;;3.90;99.90;;;;;;5099709;28;20640;-89
2023/01/01 07:27:28;;;;;;;44.60;26.83;;;4.00;99.90;;;;;;5118015;28;20183;-87
2023/01/01 07:29:54;;;;;;;48.67;27.83;;;4.00;99.90;;;;;;5118227;28;20632;-91
2023/01/01 07:32:20;;;;;;;43.23;26.63;;;4.10;99.90;;;;;;5118099;28;20252;-90
2023/01/01 07:34:45;;;;;;;44.67;28.03;;;4.10;99.90;;;;;;5118297;28;20234;-89
2023/01/01 07:37:11;;;;;;;43.40;26.23;;;4.20;99.90;;;;;;5099822;28;20277;-93
2023/01/01 07:39:37;;;;;;;39.33;26.07;;;4.30;99.90;;;;;;5099920;28;20177;-91
2023/01/01 07:42:03;;;;;;;38.23;24.23;;;4.40;99.90;;;;;;5100268;28;20180;-93
2023/01/01 07:44:29;;;;;;;38.73;25.17;;;4.40;99.90;;;;;;5118336;28;20174;-92
2023/01/01 07:47:08;;;;;;;47.03;26.30;;;4.50;99.90;;;;;;5118097;28;20170;-90
2023/01/01 07:49:34;;;;;;;47.93;26.93;;;4.50;99.90;;;;;;5100000;28;20178;-89
2023/01/01 07:51:59;;;;;;;38.73;24.30;;;4.50;99.90;;;;;;5100123;28;20203;-91
2023/01/01 07:54:25;;;;;;;38.13;23.77;;;4.60;99.90;;;;;;5099670;28;20316;-87
2023/01/01 07:56:51;;;;;;;42.30;24.87;;;4.70;99.90;;;;;;5099630;28;20184;-88
2023/01/01 07:59:17;;;;;;;39.23;23.10;;;4.70;99.90;;;;;;5099325;28;20174;-90
2023/01/01 08:01:43;;;;;;;37.37;23.43;;;4.80;99.90;;;;;;5118602;28;20219;-94
2023/01/01 08:04:09;;;;;;;44.17;24.67;;;4.90;99.90;;;;;;5100144;28;20185;-89
2023/01/01 08:06:36;;;;;;;37.33;22.27;;;5.00;99.90;;;;;;5100712;28;20166;-91
2023/01/01 08:09:02;;;;;;;39.23;23.37;;;5.00;99.90;;;;;;5102771;28;20243;-91
2023/01/01 08:11:28;;;;;;;39.43;24.37;;;5.10;99.90;;;;;;5107667;28;20747;-89
2023/01/01 08:13:54;;;;;;;39.03;24.27;;;5.10;99.90;;;;;;5130030;28;20169;-89
2023/01/01 08:16:20;;;;;;;39.93;24.43;;;5.10;99.90;;;;;;5107576;28;20179;-88
2023/01/01 08:18:46;;;;;;;37.03;22.90;;;5.10;99.90;;;;;;5105528;28;20533;-93
2023/01/01 08:21:12;;;;;;;35.50;21.60;;;5.10;99.90;;;;;;5102454;28;20330;-92
2023/01/01 08:23:38;;;;;;;33.73;21.70;;;5.10;99.90;;;;;;5105367;28;20172;-89
2023/01/01 08:26:03;;;;;;;35.87;22.13;;;5.10;99.90;;;;;;5130444;28;20632;-92
2023/01/01 08:28:30;;;;;;;34.67;22.43;;;5.10;99.90;;;;;;5135019;27;20197;-91
2023/01/01 08:30:56;;;;;;;34.03;21.07;;;5.00;99.90;;;;;;5115364;28;20213;-89
2023/01/01 08:33:25;;;;;;;35.27;21.70;;;5.10;99.90;;;;;;5110333;28;20158;-91
2023/01/01 08:35:51;;;;;;;46.20;26.43;;;5.00;99.90;;;;;;5122638;28;20621;-89
2023/01/01 08:38:17;;;;;;;43.33;25.43;;;5.00;99.90;;;;;;5107143;28;20260;-87
2023/01/01 08:40:43;;;;;;;38.30;23.50;;;5.00;99.90;;;;;;5121940;28;20198;-89
2023/01/01 08:43:09;;;;;;;38.13;23.53;;;5.10;99.90;;;;;;5107743;28;20240;-87
2023/01/01 08:45:35;;;;;;;39.93;23.77;;;5.10;99.90;;;;;;5105394;28;20692;-89
2023/01/01 08:48:01;;;;;;;38.97;23.20;;;5.20;99.90;;;;;;5106812;28;20177;-88
2023/01/01 08:50:27;;;;;;;33.53;21.13;;;5.30;99.90;;;;;;5109264;28;20261;-89
2023/01/01 08:52:53;;;;;;;31.63;20.27;;;5.30;99.90;;;;;;5120381;28;20232;-91
2023/01/01 08:55:18;;;;;;;33.90;21.23;;;5.50;99.90;;;;;;5120006;28;20649;-88
2023/01/01 08:57:44;;;;;;;34.83;24.20;;;5.50;99.90;;;;;;5101031;28;20176;-90
2023/01/01 09:00:12;;;;;;;47.60;28.43;;;5.60;99.90;;;;;;5100029;28;20575;-90
2023/01/01 09:02:41;;;;;;;48.53;27.93;;;5.70;99.90;;;;;;5099543;28;20187;-91
2023/01/01 09:05:08;;;;;;;41.80;27.60;;;5.70;99.90;;;;;;5118606;28;20514;-89
2023/01/01 09:07:34;;;;;;;48.37;27.70;;;5.80;99.90;;;;;;5099239;28;20180;-90
2023/01/01 09:10:00;;;;;;;43.83;27.43;;;5.80;99.90;;;;;;5093676;28;20257;-91
2023/01/01 09:12:26;;;;;;;43.23;27.67;;;5.90;99.90;;;;;;5096416;28;20240;-88
2023/01/01 09:14:52;;;;;;;43.80;26.57;;;6.00;99.90;;;;;;5095497;28;20654;-90
2023/01/01 09:17:18;;;;;;;46.43;28.10;;;6.00;99.90;;;;;;5096297;28;20532;-89
2023/01/01 09:19:43;;;;;;;41.07;27.07;;;6.10;99.90;;;;;;5095735;28;20167;-90
2023/01/01 09:22:10;;;;;;;43.57;26.80;;;6.20;99.90;;;;;;5095324;28;20175;-91
2023/01/01 09:24:36;;;;;;;45.33;27.13;;;6.20;99.90;;;;;;5095413;28;20226;-91
2023/01/01 09:27:02;;;;;;;42.50;27.17;;;6.20;99.90;;;;;;5095324;28;20181;-88
2023/01/01 09:29:28;;;;;;;47.00;28.70;;;6.30;99.90;;;;;;5095342;28;20188;-94
2023/01/01 09:31:54;;;;;;;46.80;28.73;;;6.30;99.90;;;;;;5095028;28;20287;-88
2023/01/01 09:34:20;;;;;;;48.93;28.87;;;6.40;99.90;;;;;;5094913;28;20697;-89
2023/01/01 09:36:46;;;;;;;45.93;29.20;;;6.50;99.90;;;;;;5095846;28;20201;-89
2023/01/01 09:39:14;;;;;;;42.60;27.97;;;6.50;99.90;;;;;;5100044;28;20659;-92
2023/01/01 09:42:07;;;;;;;44.50;28.47;;;6.60;99.90;;;;;;5099373;28;20654;-87
2023/01/01 09:45:08;;;;;;;43.53;28.60;;;6.70;99.90;;;;;;5094751;28;20184;-87
2023/01/01 09:47:42;;;;;;;50.13;29.53;;;6.70;99.90;;;;;;5072593;28;20184;-89
2023/01/01 09:50:15;;;;;;;46.37;29.47;;;6.80;99.90;;;;;;5105977;28;20179;-87
2023/01/01 09:53:00;;;;;;;47.07;29.37;;;6.80;99.90;;;;;;5113455;28;20257;-87
2023/01/01 09:55:47;;;;;;;45.83;29.43;;;6.90;99.90;;;;;;5108278;28;20163;-90
2023/01/01 09:58:13;;;;;;;46.10;29.50;;;6.80;99.90;;;;;;5098277;28;20180;-87
2023/01/01 10:00:43;;;;;;;46.53;30.30;;;6.80;99.90;;;;;;5093332;28;20177;-88
2023/01/01 10:03:50;;;;;;;48.00;29.60;;;6.90;99.90;;;;;;5095118;28;20220;-91
2023/01/01 10:06:28;;;;;;;37.10;25.13;;;6.90;99.90;;;;;;5097797;28;20163;-89
2023/01/01 10:09:15;;;;;;;41.80;27.07;;;6.90;99.90;;;;;;5094351;28;20182;-89
2023/01/01 10:11:46;;;;;;;41.27;26.03;;;6.90;99.90;;;;;;5094809;28;20607;-89
2023/01/01 10:14:38;;;;;;;38.73;24.87;;;6.90;99.90;;;;;;5095252;28;20251;-88
2023/01/01 10:17:18;;;;;;;37.83;25.03;;;6.90;99.90;;;;;;5095770;28;20598;-88
2023/01/01 10:19:52;;;;;;;38.60;25.73;;;7.00;99.90;;;;;;5098897;28;20178;-87
2023/01/01 10:22:39;;;;;;;38.30;23.77;;;7.10;99.90;;;;;;5097490;28;20642;-86
2023/01/01 10:25:28;;;;;;;37.70;24.60;;;7.10;99.90;;;;;;5094759;28;20540;-89
2023/01/01 10:28:01;;;;;;;32.60;22.83;;;7.20;99.90;;;;;;5095198;28;20177;-90
2023/01/01 10:30:28;;;;;;;31.97;20.77;;;7.30;99.90;;;;;;5095375;28;20195;-92
2023/01/01 10:32:56;;;;;;;33.23;22.10;;;7.30;99.90;;;;;;5094075;28;20216;-87
2023/01/01 10:35:30;;;;;;;36.60;22.87;;;7.40;99.90;;;;;;5093675;28;20181;-89
2023/01/01 10:38:00;;;;;;;31.13;21.10;;;7.50;99.90;;;;;;5094041;28;20216;-90
2023/01/01 10:40:28;;;;;;;32.20;20.30;;;7.50;99.90;;;;;;5096107;28;20177;-88
2023/01/01 10:42:56;;;;;;;28.83;20.47;;;7.60;99.90;;;;;;5103367;28;20176;-87
2023/01/01 10:45:42;;;;;;;23.67;17.40;;;7.70;99.90;;;;;;5117922;28;20522;-88
2023/01/01 10:48:16;;;;;;;26.33;18.53;;;7.90;99.90;;;;;;5116027;28;20299;-88
2023/01/01 10:51:02;;;;;;;23.20;16.27;;;8.00;99.90;;;;;;5111630;28;20165;-90
2023/01/01 10:53:32;;;;;;;21.50;15.20;;;8.10;99.90;;;;;;5108662;28;20178;-90
2023/01/01 10:56:12;;;;;;;20.77;15.40;;;8.20;99.90;;;;;;5103108;28;20168;-91
2023/01/01 10:59:06;;;;;;;19.40;14.33;;;8.20;99.90;;;;;;5102573;28;20168;-89
2023/01/01 11:01:33;;;;;;;21.47;14.70;;;8.30;99.90;;;;;;5095886;28;20276;-90
2023/01/01 11:04:07;;;;;;;22.37;15.00;;;8.30;99.90;;;;;;5101057;28;20186;-90
2023/01/01 11:06:35;;;;;;;20.53;14.87;;;8.40;99.90;;;;;;5110312;28;20196;-91
2023/01/01 11:09:06;;;;;;;22.53;15.93;;;8.40;99.90;;;;;;5112208;28;20178;-90
2023/01/01 11:11:42;;;;;;;21.50;13.87;;;8.50;99.90;;;;;;5102734;28;20238;-89
2023/01/01 11:14:42;;;;;;;21.47;14.17;;;8.50;99.90;;;;;;5100841;28;20165;-89
2023/01/01 11:17:09;;;;;;;20.20;14.27;;;8.60;99.90;;;;;;5102501;28;20524;-93
2023/01/01 11:19:40;;;;;;;17.80;14.17;;;8.60;99.90;;;;;;5102021;28;20726;-92
2023/01/01 11:22:47;;;;;;;18.67;13.47;;;8.60;99.90;;;;;;5106223;28;20166;-92
2023/01/01 11:25:28;;;;;;;19.27;14.57;;;8.60;99.90;;;;;;5112474;28;20166;-91
2023/01/01 11:28:16;;;;;;;19.50;14.57;;;8.60;99.90;;;;;;5106765;28;20163;-91
2023/01/01 11:31:06;;;;;;;23.63;15.37;;;8.70;99.90;;;;;;5109467;28;20179;-89
2023/01/01 11:33:37;;;;;;;21.53;14.10;;;8.80;99.90;;;;;;5112988;28;20171;-88
2023/01/01 11:36:05;;;;;;;19.53;14.33;;;8.80;99.90;;;;;;5104622;28;20174;-89
2023/01/01 11:38:31;;;;;;;20.30;13.53;;;8.90;99.90;;;;;;5098234;28;20171;-86
2023/01/01 11:41:05;;;;;;;18.50;13.47;;;9.00;99.90;;;;;;5097461;28;20231;-89
2023/01/01 11:43:44;;;;;;;19.67;13.60;;;9.10;99.90;;;;;;5096647;28;20226;-88
2023/01/01 11:46:14;;;;;;;21.70;13.90;;;9.20;99.90;;;;;;5096394;28;20171;-87
2023/01/01 11:48:43;;;;;;;20.27;14.13;;;9.20;99.90;;;;;;5098591;28;20191;-87
2023/01/01 11:51:26;;;;;;;21.27;14.07;;;9.20;99.90;;;;;;5099425;28;20212;-89
2023/01/01 11:54:21;;;;;;;18.87;13.23;;;9.30;99.90;;;;;;5110471;28;20161;-87
2023/01/01 11:56:52;;;;;;;19.27;13.80;;;9.40;99.90;;;;;;5105526;28;20158;-86
2023/01/01 11:59:25;;;;;;;19.97;13.97;;;9.40;99.90;;;;;;5105020;28;20174;-87
2023/01/01 12:01:58;;;;;;;20.13;13.10;;;9.50;99.90;;;;;;5098058;28;20272;-88
2023/01/01 12:04:36;;;;;;;18.87;14.50;;;9.60;99.90;;;;;;5097944;28;20247;-87
2023/01/01 12:07:27;;;;;;;20.83;13.83;;;9.70;99.90;;;;;;5097278;28;20244;-90
2023/01/01 12:10:23;;;;;;;18.70;13.43;;;9.70;99.90;;;;;;5098465;28;20206;-88
2023/01/01 12:13:04;;;;;;;19.03;13.60;;;9.70;99.90;;;;;;5119194;28;20584;-90
2023/01/01 12:15:56;;;;;;;18.10;13.53;;;9.80;99.90;;;;;;5119257;28;20180;-90
2023/01/01 12:18:34;;;;;;;17.93;13.37;;;9.80;99.90;;;;;;5079942;28;20185;-89
2023/01/01 12:21:07;;;;;;;18.87;12.53;;;9.90;99.90;;;;;;5099765;28;20175;-88
2023/01/01 12:23:34;;;;;;;18.97;12.80;;;10.00;99.90;;;;;;5103384;28;20198;-88
2023/01/01 12:26:08;;;;;;;20.83;13.60;;;10.00;99.90;;;;;;5110266;28;20176;-89
2023/01/01 12:29:09;;;;;;;13.30;10.83;;;10.10;99.90;;;;;;5119525;28;20247;-91
2023/01/01 12:31:46;;;;;;;14.43;10.83;;;10.20;99.90;;;;;;5045243;28;20675;-88
2023/01/01 12:34:24;;;;;;;15.13;10.67;;;10.30;99.90;;;;;;5102305;28;20185;-90
2023/01/01 12:37:24;;;;;;;15.37;10.60;;;10.30;99.90;;;;;;5104425;28;20181;-92
2023/01/01 12:40:32;;;;;;;16.10;11.40;;;10.40;99.90;;;;;;5107688;28;20234;-94
2023/01/01 12:43:07;;;;;;;15.43;10.57;;;10.40;99.90;;;;;;5123165;28;20519;-91
2023/01/01 12:46:01;;;;;;;15.70;11.50;;;10.50;99.90;;;;;;5100486;28;20174;-90
2023/01/01 12:48:51;;;;;;;13.30;10.30;;;10.50;99.90;;;;;;5117516;28;20255;-91
2023/01/01 12:51:39;;;;;;;13.40;10.30;;;10.50;99.90;;;;;;5124792;28;20606;-89
2023/01/01 12:54:30;;;;;;;14.00;10.37;;;10.50;99.90;;;;;;5121550;28;20165;-91
2023/01/01 12:57:14;;;;;;;11.90;8.77;;;10.50;99.90;;;;;;5108355;28;20207;-89
2023/01/01 12:59:46;;;;;;;14.20;10.43;;;10.50;99.90;;;;;;5117510;28;20173;-87
2023/01/01 13:02:40;;;;;;;12.73;10.23;;;10.60;99.90;;;;;;5132687;28;20162;-87